sim
Sign-in with your pilot id or email,
or register
Callsign
Passwort

Schedule Details

Flight Number: OEO7806
Departure: Paris Charles de Gaulle Airport (LFPG) at 19:35
Arrival: Mumbai Chhatrapati Shivaji International Airport (VABB) at 04:05

Weather Information
Getting current METAR information for LFPG 191730Z 26006KT CAVOK 23/09 Q1019 NOSIG
Getting current METAR information for VABB 191730Z 24007KT 3500 HZ SCT020 28/25 Q1010 NOSIG

Schedule Frequency

Route Map